sensor_id;sensor_type;location;lat;lon;timestamp;P1;durP1;ratioP1;P2;durP2;ratioP2
11671;SDS011;5892;43.412;24.612;2023-06-22T00:01:16;14.17;;;9.67;;
11671;SDS011;5892;43.412;24.612;2023-06-22T00:03:43;10.57;;;9.30;;
11671;SDS011;5892;43.412;24.612;2023-06-22T00:06:11;10.47;;;9.00;;
11671;SDS011;5892;43.412;24.612;2023-06-22T00:08:39;11.17;;;9.13;;
11671;SDS011;5892;43.412;24.612;2023-06-22T00:11:06;10.47;;;9.47;;
11671;SDS011;5892;43.412;24.612;2023-06-22T00:13:33;10.53;;;8.70;;
11671;SDS011;5892;43.412;24.612;2023-06-22T00:16:00;10.17;;;9.17;;
11671;SDS011;5892;43.412;24.612;2023-06-22T00:18:27;10.43;;;8.90;;
11671;SDS011;5892;43.412;24.612;2023-06-22T00:20:55;10.83;;;9.13;;
11671;SDS011;5892;43.412;24.612;2023-06-22T00:23:26;9.63;;;8.27;;
11671;SDS011;5892;43.412;24.612;2023-06-22T00:25:53;8.73;;;7.83;;
11671;SDS011;5892;43.412;24.612;2023-06-22T00:28:22;9.13;;;7.80;;
11671;SDS011;5892;43.412;24.612;2023-06-22T00:30:48;8.07;;;7.37;;
11671;SDS011;5892;43.412;24.612;2023-06-22T00:33:16;8.77;;;7.87;;
11671;SDS011;5892;43.412;24.612;2023-06-22T00:35:43;8.70;;;7.47;;
11671;SDS011;5892;43.412;24.612;2023-06-22T00:38:10;10.33;;;8.00;;
11671;SDS011;5892;43.412;24.612;2023-06-22T00:40:39;8.27;;;7.37;;
11671;SDS011;5892;43.412;24.612;2023-06-22T00:43:06;9.10;;;8.13;;
11671;SDS011;5892;43.412;24.612;2023-06-22T00:45:33;8.80;;;7.90;;
11671;SDS011;5892;43.412;24.612;2023-06-22T00:47:59;8.80;;;7.90;;
11671;SDS011;5892;43.412;24.612;2023-06-22T00:50:29;8.80;;;7.90;;
11671;SDS011;5892;43.412;24.612;2023-06-22T00:53:00;8.37;;;7.37;;
11671;SDS011;5892;43.412;24.612;2023-06-22T00:55:33;7.77;;;7.07;;
11671;SDS011;5892;43.412;24.612;2023-06-22T00:58:05;7.80;;;7.00;;
11671;SDS011;5892;43.412;24.612;2023-06-22T01:00:35;8.40;;;7.60;;
11671;SDS011;5892;43.412;24.612;2023-06-22T01:03:03;7.97;;;7.17;;
11671;SDS011;5892;43.412;24.612;2023-06-22T01:05:34;8.40;;;7.60;;
11671;SDS011;5892;43.412;24.612;2023-06-22T01:08:06;8.30;;;7.60;;
11671;SDS011;5892;43.412;24.612;2023-06-22T01:10:41;8.83;;;7.70;;
11671;SDS011;5892;43.412;24.612;2023-06-22T01:13:18;9.90;;;7.13;;
11671;SDS011;5892;43.412;24.612;2023-06-22T01:15:53;10.57;;;8.00;;
11671;SDS011;5892;43.412;24.612;2023-06-22T01:18:26;8.80;;;7.70;;
11671;SDS011;5892;43.412;24.612;2023-06-22T01:20:55;11.60;;;7.90;;
11671;SDS011;5892;43.412;24.612;2023-06-22T01:23:26;11.60;;;7.93;;
11671;SDS011;5892;43.412;24.612;2023-06-22T01:26:02;9.00;;;8.00;;
11671;SDS011;5892;43.412;24.612;2023-06-22T01:28:42;9.33;;;8.37;;
11671;SDS011;5892;43.412;24.612;2023-06-22T01:31:12;9.10;;;7.60;;
11671;SDS011;5892;43.412;24.612;2023-06-22T01:33:41;11.67;;;8.00;;
11671;SDS011;5892;43.412;24.612;2023-06-22T01:36:10;9.90;;;8.90;;
11671;SDS011;5892;43.412;24.612;2023-06-22T01:38:41;9.13;;;8.23;;
11671;SDS011;5892;43.412;24.612;2023-06-22T01:41:10;11.47;;;8.43;;
11671;SDS011;5892;43.412;24.612;2023-06-22T01:43:39;10.20;;;8.60;;
11671;SDS011;5892;43.412;24.612;2023-06-22T01:46:08;9.83;;;8.03;;
11671;SDS011;5892;43.412;24.612;2023-06-22T01:48:35;10.37;;;8.20;;
11671;SDS011;5892;43.412;24.612;2023-06-22T01:51:02;10.57;;;8.70;;
11671;SDS011;5892;43.412;24.612;2023-06-22T01:53:29;10.20;;;7.90;;
11671;SDS011;5892;43.412;24.612;2023-06-22T01:55:56;10.17;;;8.50;;
11671;SDS011;5892;43.412;24.612;2023-06-22T01:58:25;9.53;;;8.03;;
11671;SDS011;5892;43.412;24.612;2023-06-22T02:00:56;8.93;;;7.90;;
11671;SDS011;5892;43.412;24.612;2023-06-22T02:03:31;10.43;;;8.23;;
11671;SDS011;5892;43.412;24.612;2023-06-22T02:06:03;9.93;;;8.00;;
11671;SDS011;5892;43.412;24.612;2023-06-22T02:08:36;9.23;;;7.80;;
11671;SDS011;5892;43.412;24.612;2023-06-22T02:11:06;9.10;;;8.00;;
11671;SDS011;5892;43.412;24.612;2023-06-22T02:13:34;10.40;;;8.37;;
11671;SDS011;5892;43.412;24.612;2023-06-22T02:16:07;11.20;;;7.80;;
11671;SDS011;5892;43.412;24.612;2023-06-22T02:18:36;8.77;;;7.87;;
11671;SDS011;5892;43.412;24.612;2023-06-22T02:21:07;8.77;;;7.97;;
11671;SDS011;5892;43.412;24.612;2023-06-22T02:23:34;12.00;;;7.97;;
11671;SDS011;5892;43.412;24.612;2023-06-22T02:26:03;10.40;;;8.00;;
11671;SDS011;5892;43.412;24.612;2023-06-22T02:28:30;14.40;;;8.10;;
11671;SDS011;5892;43.412;24.612;2023-06-22T02:30:57;8.70;;;7.87;;
11671;SDS011;5892;43.412;24.612;2023-06-22T02:33:24;12.63;;;7.93;;
11671;SDS011;5892;43.412;24.612;2023-06-22T02:35:54;8.80;;;7.83;;
11671;SDS011;5892;43.412;24.612;2023-06-22T02:38:21;13.47;;;8.47;;
11671;SDS011;5892;43.412;24.612;2023-06-22T02:40:50;8.93;;;8.10;;
11671;SDS011;5892;43.412;24.612;2023-06-22T02:43:17;8.53;;;7.57;;
11671;SDS011;5892;43.412;24.612;2023-06-22T02:45:45;11.40;;;7.90;;
11671;SDS011;5892;43.412;24.612;2023-06-22T02:48:13;8.73;;;7.67;;
11671;SDS011;5892;43.412;24.612;2023-06-22T02:50:39;8.33;;;7.53;;
11671;SDS011;5892;43.412;24.612;2023-06-22T02:53:08;10.27;;;8.23;;
11671;SDS011;5892;43.412;24.612;2023-06-22T02:55:35;8.80;;;7.90;;
11671;SDS011;5892;43.412;24.612;2023-06-22T02:58:01;9.47;;;8.20;;
11671;SDS011;5892;43.412;24.612;2023-06-22T03:00:30;8.37;;;7.63;;
11671;SDS011;5892;43.412;24.612;2023-06-22T03:02:57;13.17;;;7.90;;
11671;SDS011;5892;43.412;24.612;2023-06-22T03:05:27;9.77;;;7.90;;
11671;SDS011;5892;43.412;24.612;2023-06-22T03:07:54;9.20;;;7.47;;
11671;SDS011;5892;43.412;24.612;2023-06-22T03:10:22;9.37;;;7.57;;
11671;SDS011;5892;43.412;24.612;2023-06-22T03:12:49;10.13;;;7.30;;
11671;SDS011;5892;43.412;24.612;2023-06-22T03:15:16;8.23;;;6.97;;
11671;SDS011;5892;43.412;24.612;2023-06-22T03:17:43;7.63;;;6.83;;
11671;SDS011;5892;43.412;24.612;2023-06-22T03:20:11;10.83;;;7.40;;
11671;SDS011;5892;43.412;24.612;2023-06-22T03:22:38;11.87;;;6.90;;
11671;SDS011;5892;43.412;24.612;2023-06-22T03:25:06;6.87;;;6.17;;
11671;SDS011;5892;43.412;24.612;2023-06-22T03:27:42;11.03;;;6.67;;
11671;SDS011;5892;43.412;24.612;2023-06-22T03:30:13;9.87;;;6.40;;
11671;SDS011;5892;43.412;24.612;2023-06-22T03:32:40;7.00;;;6.20;;
11671;SDS011;5892;43.412;24.612;2023-06-22T03:35:08;8.67;;;6.80;;
11671;SDS011;5892;43.412;24.612;2023-06-22T03:37:38;8.27;;;7.00;;
11671;SDS011;5892;43.412;24.612;2023-06-22T03:40:06;10.53;;;7.30;;
11671;SDS011;5892;43.412;24.612;2023-06-22T03:42:34;13.07;;;7.53;;
11671;SDS011;5892;43.412;24.612;2023-06-22T03:45:03;12.93;;;7.40;;
11671;SDS011;5892;43.412;24.612;2023-06-22T03:47:32;12.23;;;7.40;;
11671;SDS011;5892;43.412;24.612;2023-06-22T03:49:59;11.40;;;7.63;;
11671;SDS011;5892;43.412;24.612;2023-06-22T03:52:28;13.03;;;7.23;;
11671;SDS011;5892;43.412;24.612;2023-06-22T03:54:56;16.07;;;7.83;;
11671;SDS011;5892;43.412;24.612;2023-06-22T03:57:23;16.70;;;7.77;;
11671;SDS011;5892;43.412;24.612;2023-06-22T03:59:49;12.67;;;7.70;;
11671;SDS011;5892;43.412;24.612;2023-06-22T04:02:18;11.17;;;7.67;;
11671;SDS011;5892;43.412;24.612;2023-06-22T04:04:45;11.20;;;7.20;;
11671;SDS011;5892;43.412;24.612;2023-06-22T04:07:13;10.20;;;7.80;;
11671;SDS011;5892;43.412;24.612;2023-06-22T04:09:40;15.07;;;8.07;;
11671;SDS011;5892;43.412;24.612;2023-06-22T04:12:07;16.07;;;8.50;;
11671;SDS011;5892;43.412;24.612;2023-06-22T04:14:34;14.23;;;8.73;;
11671;SDS011;5892;43.412;24.612;2023-06-22T04:17:01;19.90;;;8.93;;
11671;SDS011;5892;43.412;24.612;2023-06-22T04:19:30;17.33;;;8.93;;
11671;SDS011;5892;43.412;24.612;2023-06-22T04:22:02;15.30;;;8.43;;
11671;SDS011;5892;43.412;24.612;2023-06-22T04:24:31;13.63;;;8.00;;
11671;SDS011;5892;43.412;24.612;2023-06-22T04:26:59;11.97;;;8.47;;
11671;SDS011;5892;43.412;24.612;2023-06-22T04:29:27;10.97;;;7.87;;
11671;SDS011;5892;43.412;24.612;2023-06-22T04:31:55;12.50;;;7.70;;
11671;SDS011;5892;43.412;24.612;2023-06-22T04:34:31;12.10;;;7.47;;
11671;SDS011;5892;43.412;24.612;2023-06-22T04:37:00;14.83;;;7.50;;
11671;SDS011;5892;43.412;24.612;2023-06-22T04:39:27;13.10;;;7.57;;
11671;SDS011;5892;43.412;24.612;2023-06-22T04:41:54;11.83;;;7.50;;
11671;SDS011;5892;43.412;24.612;2023-06-22T04:44:25;13.30;;;7.87;;
11671;SDS011;5892;43.412;24.612;2023-06-22T04:46:53;10.50;;;7.07;;
11671;SDS011;5892;43.412;24.612;2023-06-22T04:49:25;12.47;;;8.43;;
11671;SDS011;5892;43.412;24.612;2023-06-22T04:51:59;8.50;;;7.70;;
11671;SDS011;5892;43.412;24.612;2023-06-22T04:54:26;10.20;;;7.90;;
11671;SDS011;5892;43.412;24.612;2023-06-22T04:56:53;11.90;;;8.17;;
11671;SDS011;5892;43.412;24.612;2023-06-22T04:59:22;14.90;;;8.13;;
11671;SDS011;5892;43.412;24.612;2023-06-22T05:01:53;21.30;;;8.37;;
11671;SDS011;5892;43.412;24.612;2023-06-22T05:04:21;10.57;;;8.10;;
11671;SDS011;5892;43.412;24.612;2023-06-22T05:06:49;13.17;;;7.70;;
11671;SDS011;5892;43.412;24.612;2023-06-22T05:09:18;11.93;;;7.90;;
11671;SDS011;5892;43.412;24.612;2023-06-22T05:11:45;22.07;;;8.53;;
11671;SDS011;5892;43.412;24.612;2023-06-22T05:14:13;14.97;;;8.03;;
11671;SDS011;5892;43.412;24.612;2023-06-22T05:16:40;13.37;;;7.90;;
11671;SDS011;5892;43.412;24.612;2023-06-22T05:19:09;10.20;;;6.90;;
11671;SDS011;5892;43.412;24.612;2023-06-22T05:21:37;7.07;;;6.37;;
11671;SDS011;5892;43.412;24.612;2023-06-22T05:24:05;7.30;;;6.60;;
11671;SDS011;5892;43.412;24.612;2023-06-22T05:26:36;7.20;;;6.50;;
11671;SDS011;5892;43.412;24.612;2023-06-22T05:29:03;14.33;;;7.73;;
11671;SDS011;5892;43.412;24.612;2023-06-22T05:31:31;12.07;;;7.23;;
11671;SDS011;5892;43.412;24.612;2023-06-22T05:33:59;11.43;;;8.40;;
11671;SDS011;5892;43.412;24.612;2023-06-22T05:36:26;13.37;;;8.90;;
11671;SDS011;5892;43.412;24.612;2023-06-22T05:38:53;11.40;;;8.40;;
11671;SDS011;5892;43.412;24.612;2023-06-22T05:41:22;14.93;;;8.43;;
11671;SDS011;5892;43.412;24.612;2023-06-22T05:43:51;15.17;;;7.87;;
11671;SDS011;5892;43.412;24.612;2023-06-22T05:46:20;9.37;;;7.93;;
11671;SDS011;5892;43.412;24.612;2023-06-22T05:48:49;12.70;;;7.27;;
11671;SDS011;5892;43.412;24.612;2023-06-22T05:51:17;11.77;;;8.13;;
11671;SDS011;5892;43.412;24.612;2023-06-22T05:53:44;13.27;;;7.80;;
11671;SDS011;5892;43.412;24.612;2023-06-22T05:56:14;14.77;;;8.70;;
11671;SDS011;5892;43.412;24.612;2023-06-22T05:58:43;12.47;;;8.60;;
11671;SDS011;5892;43.412;24.612;2023-06-22T06:01:12;11.57;;;8.63;;
11671;SDS011;5892;43.412;24.612;2023-06-22T06:03:43;9.80;;;7.43;;
11671;SDS011;5892;43.412;24.612;2023-06-22T06:06:10;8.97;;;6.87;;
11671;SDS011;5892;43.412;24.612;2023-06-22T06:08:37;9.00;;;7.07;;
11671;SDS011;5892;43.412;24.612;2023-06-22T06:11:05;10.67;;;6.30;;
11671;SDS011;5892;43.412;24.612;2023-06-22T06:13:31;7.70;;;6.67;;
11671;SDS011;5892;43.412;24.612;2023-06-22T06:15:58;8.97;;;6.90;;
11671;SDS011;5892;43.412;24.612;2023-06-22T06:18:27;7.47;;;6.63;;
11671;SDS011;5892;43.412;24.612;2023-06-22T06:20:54;10.50;;;7.20;;
11671;SDS011;5892;43.412;24.612;2023-06-22T06:23:22;8.27;;;7.13;;
11671;SDS011;5892;43.412;24.612;2023-06-22T06:25:49;11.57;;;6.83;;
11671;SDS011;5892;43.412;24.612;2023-06-22T06:28:16;7.78;;;7.07;;
11671;SDS011;5892;43.412;24.612;2023-06-22T06:30:43;7.10;;;6.40;;
11671;SDS011;5892;43.412;24.612;2023-06-22T06:33:12;7.63;;;6.93;;
11671;SDS011;5892;43.412;24.612;2023-06-22T06:35:43;7.43;;;6.45;;
11671;SDS011;5892;43.412;24.612;2023-06-22T06:38:11;8.87;;;6.67;;
11671;SDS011;5892;43.412;24.612;2023-06-22T06:40:41;9.10;;;7.03;;
11671;SDS011;5892;43.412;24.612;2023-06-22T06:43:14;24.10;;;7.88;;
11671;SDS011;5892;43.412;24.612;2023-06-22T06:45:41;7.13;;;6.22;;
11671;SDS011;5892;43.412;24.612;2023-06-22T06:48:08;7.28;;;6.68;;
11671;SDS011;5892;43.412;24.612;2023-06-22T06:50:35;7.45;;;6.43;;
11671;SDS011;5892;43.412;24.612;2023-06-22T06:53:05;9.35;;;6.53;;
11671;SDS011;5892;43.412;24.612;2023-06-22T06:55:33;7.95;;;6.53;;
11671;SDS011;5892;43.412;24.612;2023-06-22T06:58:01;7.65;;;6.63;;
11671;SDS011;5892;43.412;24.612;2023-06-22T07:00:29;7.60;;;6.80;;
11671;SDS011;5892;43.412;24.612;2023-06-22T07:02:56;9.57;;;6.55;;
11671;SDS011;5892;43.412;24.612;2023-06-22T07:05:24;7.07;;;6.07;;
11671;SDS011;5892;43.412;24.612;2023-06-22T07:07:53;8.82;;;6.30;;
11671;SDS011;5892;43.412;24.612;2023-06-22T07:10:21;16.83;;;6.93;;
11671;SDS011;5892;43.412;24.612;2023-06-22T07:12:50;7.03;;;6.53;;
11671;SDS011;5892;43.412;24.612;2023-06-22T07:15:17;7.60;;;6.90;;
11671;SDS011;5892;43.412;24.612;2023-06-22T07:17:46;9.45;;;6.70;;
11671;SDS011;5892;43.412;24.612;2023-06-22T07:20:15;9.00;;;6.07;;
11671;SDS011;5892;43.412;24.612;2023-06-22T07:22:45;10.10;;;6.72;;
11671;SDS011;5892;43.412;24.612;2023-06-22T07:25:12;13.10;;;6.30;;
11671;SDS011;5892;43.412;24.612;2023-06-22T07:27:46;6.82;;;6.07;;
11671;SDS011;5892;43.412;24.612;2023-06-22T07:30:28;6.18;;;5.65;;
11671;SDS011;5892;43.412;24.612;2023-06-22T07:32:58;6.60;;;6.00;;
11671;SDS011;5892;43.412;24.612;2023-06-22T07:35:28;10.60;;;5.85;;
11671;SDS011;5892;43.412;24.612;2023-06-22T07:37:57;7.70;;;6.55;;
11671;SDS011;5892;43.412;24.612;2023-06-22T07:40:26;7.03;;;5.82;;
11671;SDS011;5892;43.412;24.612;2023-06-22T07:42:55;6.80;;;6.10;;
11671;SDS011;5892;43.412;24.612;2023-06-22T07:45:21;7.05;;;6.00;;
11671;SDS011;5892;43.412;24.612;2023-06-22T07:47:49;6.97;;;6.10;;
11671;SDS011;5892;43.412;24.612;2023-06-22T07:50:16;6.40;;;5.82;;
11671;SDS011;5892;43.412;24.612;2023-06-22T07:52:43;17.55;;;7.32;;
11671;SDS011;5892;43.412;24.612;2023-06-22T07:55:10;7.97;;;6.35;;
11671;SDS011;5892;43.412;24.612;2023-06-22T07:57:36;9.35;;;6.40;;
11671;SDS011;5892;43.412;24.612;2023-06-22T08:00:05;7.07;;;6.47;;
11671;SDS011;5892;43.412;24.612;2023-06-22T08:02:38;7.00;;;6.40;;
11671;SDS011;5892;43.412;24.612;2023-06-22T08:05:07;6.93;;;6.30;;
11671;SDS011;5892;43.412;24.612;2023-06-22T08:07:34;7.20;;;6.50;;
11671;SDS011;5892;43.412;24.612;2023-06-22T08:10:02;9.50;;;7.00;;
11671;SDS011;5892;43.412;24.612;2023-06-22T08:12:32;7.72;;;6.90;;
11671;SDS011;5892;43.412;24.612;2023-06-22T08:14:59;8.10;;;7.25;;
11671;SDS011;5892;43.412;24.612;2023-06-22T08:17:28;7.50;;;6.80;;
11671;SDS011;5892;43.412;24.612;2023-06-22T08:19:57;14.10;;;7.28;;
11671;SDS011;5892;43.412;24.612;2023-06-22T08:22:24;8.40;;;6.72;;
11671;SDS011;5892;43.412;24.612;2023-06-22T08:24:51;8.90;;;7.40;;
11671;SDS011;5892;43.412;24.612;2023-06-22T08:27:18;8.55;;;7.03;;
11671;SDS011;5892;43.412;24.612;2023-06-22T08:29:46;8.00;;;7.30;;
11671;SDS011;5892;43.412;24.612;2023-06-22T08:32:14;8.00;;;7.20;;
11671;SDS011;5892;43.412;24.612;2023-06-22T08:34:42;9.05;;;6.97;;
11671;SDS011;5892;43.412;24.612;2023-06-22T08:37:10;7.88;;;7.28;;
11671;SDS011;5892;43.412;24.612;2023-06-22T08:39:37;7.90;;;7.13;;
11671;SDS011;5892;43.412;24.612;2023-06-22T08:42:04;8.60;;;7.80;;
11671;SDS011;5892;43.412;24.612;2023-06-22T08:44:33;7.28;;;6.57;;
11671;SDS011;5892;43.412;24.612;2023-06-22T08:47:00;7.35;;;6.63;;
11671;SDS011;5892;43.412;24.612;2023-06-22T08:49:27;9.02;;;7.05;;
11671;SDS011;5892;43.412;24.612;2023-06-22T08:51:55;8.07;;;7.20;;
11671;SDS011;5892;43.412;24.612;2023-06-22T08:54:23;7.68;;;6.97;;
11671;SDS011;5892;43.412;24.612;2023-06-22T08:56:50;7.38;;;6.43;;
11671;SDS011;5892;43.412;24.612;2023-06-22T08:59:16;10.95;;;6.45;;
11671;SDS011;5892;43.412;24.612;2023-06-22T09:01:43;9.32;;;6.53;;
11671;SDS011;5892;43.412;24.612;2023-06-22T09:04:14;9.55;;;6.30;;
11671;SDS011;5892;43.412;24.612;2023-06-22T09:06:42;7.05;;;6.35;;
11671;SDS011;5892;43.412;24.612;2023-06-22T09:09:13;6.50;;;5.95;;
11671;SDS011;5892;43.412;24.612;2023-06-22T09:11:40;8.60;;;6.78;;
11671;SDS011;5892;43.412;24.612;2023-06-22T09:14:08;6.60;;;6.00;;
11671;SDS011;5892;43.412;24.612;2023-06-22T09:16:37;7.05;;;6.35;;
11671;SDS011;5892;43.412;24.612;2023-06-22T09:19:04;7.95;;;5.93;;
11671;SDS011;5892;43.412;24.612;2023-06-22T09:21:33;6.97;;;6.28;;
11671;SDS011;5892;43.412;24.612;2023-06-22T09:24:02;6.53;;;5.80;;
11671;SDS011;5892;43.412;24.612;2023-06-22T09:26:31;7.82;;;6.20;;
11671;SDS011;5892;43.412;24.612;2023-06-22T09:29:00;8.65;;;5.60;;
11671;SDS011;5892;43.412;24.612;2023-06-22T09:31:27;6.05;;;5.45;;
11671;SDS011;5892;43.412;24.612;2023-06-22T09:33:55;6.85;;;5.60;;
11671;SDS011;5892;43.412;24.612;2023-06-22T09:36:21;6.57;;;5.97;;
11671;SDS011;5892;43.412;24.612;2023-06-22T09:38:48;6.13;;;5.60;;
11671;SDS011;5892;43.412;24.612;2023-06-22T09:41:20;6.57;;;5.97;;
11671;SDS011;5892;43.412;24.612;2023-06-22T09:43:50;7.43;;;6.00;;
11671;SDS011;5892;43.412;24.612;2023-06-22T09:46:18;6.40;;;5.80;;
11671;SDS011;5892;43.412;24.612;2023-06-22T09:48:47;8.48;;;6.00;;
11671;SDS011;5892;43.412;24.612;2023-06-22T09:51:15;6.45;;;5.63;;
11671;SDS011;5892;43.412;24.612;2023-06-22T09:53:42;5.68;;;5.28;;
11671;SDS011;5892;43.412;24.612;2023-06-22T09:56:09;9.57;;;5.97;;
11671;SDS011;5892;43.412;24.612;2023-06-22T09:58:40;6.80;;;5.50;;
11671;SDS011;5892;43.412;24.612;2023-06-22T10:01:10;6.05;;;5.45;;
11671;SDS011;5892;43.412;24.612;2023-06-22T10:03:37;5.72;;;5.22;;
11671;SDS011;5892;43.412;24.612;2023-06-22T10:06:04;7.22;;;5.68;;
11671;SDS011;5892;43.412;24.612;2023-06-22T10:08:31;11.23;;;5.75;;
11671;SDS011;5892;43.412;24.612;2023-06-22T10:10:58;8.13;;;5.75;;
11671;SDS011;5892;43.412;24.612;2023-06-22T10:13:26;7.22;;;5.88;;
11671;SDS011;5892;43.412;24.612;2023-06-22T10:15:53;6.00;;;5.50;;
11671;SDS011;5892;43.412;24.612;2023-06-22T10:18:23;6.45;;;5.88;;
11671;SDS011;5892;43.412;24.612;2023-06-22T10:20:50;6.25;;;5.38;;
11671;SDS011;5892;43.412;24.612;2023-06-22T10:23:20;6.13;;;5.53;;
11671;SDS011;5892;43.412;24.612;2023-06-22T10:25:47;6.47;;;5.88;;
11671;SDS011;5892;43.412;24.612;2023-06-22T10:28:14;9.68;;;8.20;;
11671;SDS011;5892;43.412;24.612;2023-06-22T10:30:41;6.90;;;5.85;;
11671;SDS011;5892;43.412;24.612;2023-06-22T10:33:12;8.57;;;6.07;;
11671;SDS011;5892;43.412;24.612;2023-06-22T10:35:43;6.47;;;5.88;;
11671;SDS011;5892;43.412;24.612;2023-06-22T10:38:09;9.57;;;6.15;;
11671;SDS011;5892;43.412;24.612;2023-06-22T10:40:36;5.97;;;5.47;;
11671;SDS011;5892;43.412;24.612;2023-06-22T10:43:04;6.50;;;5.80;;
11671;SDS011;5892;43.412;24.612;2023-06-22T10:45:32;8.35;;;5.70;;
11671;SDS011;5892;43.412;24.612;2023-06-22T10:47:59;7.38;;;5.97;;
11671;SDS011;5892;43.412;24.612;2023-06-22T10:50:27;6.70;;;6.10;;
11671;SDS011;5892;43.412;24.612;2023-06-22T10:52:56;7.70;;;5.75;;
11671;SDS011;5892;43.412;24.612;2023-06-22T10:55:24;6.55;;;5.97;;
11671;SDS011;5892;43.412;24.612;2023-06-22T10:57:50;6.88;;;6.18;;
11671;SDS011;5892;43.412;24.612;2023-06-22T11:00:19;6.10;;;5.57;;
11671;SDS011;5892;43.412;24.612;2023-06-22T11:02:47;5.80;;;5.30;;
11671;SDS011;5892;43.412;24.612;2023-06-22T11:05:16;6.07;;;5.43;;
11671;SDS011;5892;43.412;24.612;2023-06-22T11:07:43;8.57;;;6.00;;
11671;SDS011;5892;43.412;24.612;2023-06-22T11:10:13;7.57;;;5.88;;
11671;SDS011;5892;43.412;24.612;2023-06-22T11:12:40;8.85;;;6.20;;
11671;SDS011;5892;43.412;24.612;2023-06-22T11:15:08;6.18;;;5.60;;
11671;SDS011;5892;43.412;24.612;2023-06-22T11:17:35;6.32;;;5.72;;
11671;SDS011;5892;43.412;24.612;2023-06-22T11:20:02;7.85;;;6.28;;
11671;SDS011;5892;43.412;24.612;2023-06-22T11:22:35;7.95;;;5.85;;
11671;SDS011;5892;43.412;24.612;2023-06-22T11:25:05;9.25;;;6.15;;
11671;SDS011;5892;43.412;24.612;2023-06-22T11:27:38;6.75;;;5.45;;
11671;SDS011;5892;43.412;24.612;2023-06-22T11:30:05;6.50;;;5.82;;
11671;SDS011;5892;43.412;24.612;2023-06-22T11:32:34;7.30;;;5.93;;
11671;SDS011;5892;43.412;24.612;2023-06-22T11:35:01;7.75;;;6.10;;
11671;SDS011;5892;43.412;24.612;2023-06-22T11:37:28;8.60;;;5.97;;
11671;SDS011;5892;43.412;24.612;2023-06-22T11:39:55;6.40;;;5.90;;
11671;SDS011;5892;43.412;24.612;2023-06-22T11:42:23;7.10;;;6.20;;
11671;SDS011;5892;43.412;24.612;2023-06-22T11:44:51;7.03;;;5.95;;
11671;SDS011;5892;43.412;24.612;2023-06-22T11:47:19;6.78;;;6.15;;
11671;SDS011;5892;43.412;24.612;2023-06-22T11:49:48;6.35;;;5.60;;
11671;SDS011;5892;43.412;24.612;2023-06-22T11:52:15;6.13;;;5.63;;
11671;SDS011;5892;43.412;24.612;2023-06-22T11:54:43;6.45;;;5.85;;
11671;SDS011;5892;43.412;24.612;2023-06-22T11:57:12;11.80;;;6.13;;
11671;SDS011;5892;43.412;24.612;2023-06-22T11:59:39;6.60;;;5.90;;
11671;SDS011;5892;43.412;24.612;2023-06-22T12:02:07;6.53;;;5.93;;
11671;SDS011;5892;43.412;24.612;2023-06-22T12:04:34;6.03;;;5.43;;
11671;SDS011;5892;43.412;24.612;2023-06-22T12:07:01;8.38;;;5.93;;
11671;SDS011;5892;43.412;24.612;2023-06-22T12:09:30;6.43;;;5.93;;
11671;SDS011;5892;43.412;24.612;2023-06-22T12:11:57;6.72;;;6.07;;
11671;SDS011;5892;43.412;24.612;2023-06-22T12:14:24;7.85;;;5.68;;
11671;SDS011;5892;43.412;24.612;2023-06-22T12:16:51;6.80;;;6.20;;
11671;SDS011;5892;43.412;24.612;2023-06-22T12:19:22;6.78;;;6.15;;
11671;SDS011;5892;43.412;24.612;2023-06-22T12:21:49;6.88;;;5.85;;
11671;SDS011;5892;43.412;24.612;2023-06-22T12:24:16;6.63;;;6.03;;
11671;SDS011;5892;43.412;24.612;2023-06-22T12:26:43;6.63;;;5.78;;
11671;SDS011;5892;43.412;24.612;2023-06-22T12:29:10;7.47;;;5.70;;
11671;SDS011;5892;43.412;24.612;2023-06-22T12:31:37;6.65;;;5.72;;
11671;SDS011;5892;43.412;24.612;2023-06-22T12:34:05;7.72;;;5.80;;
11671;SDS011;5892;43.412;24.612;2023-06-22T12:36:33;6.93;;;6.32;;
11671;SDS011;5892;43.412;24.612;2023-06-22T12:39:00;6.93;;;6.22;;
11671;SDS011;5892;43.412;24.612;2023-06-22T12:41:27;6.90;;;6.30;;
11671;SDS011;5892;43.412;24.612;2023-06-22T12:43:55;9.07;;;6.80;;
11671;SDS011;5892;43.412;24.612;2023-06-22T12:46:21;7.13;;;6.43;;
11671;SDS011;5892;43.412;24.612;2023-06-22T12:48:49;7.40;;;6.63;;
11671;SDS011;5892;43.412;24.612;2023-06-22T12:51:20;7.25;;;6.55;;
11671;SDS011;5892;43.412;24.612;2023-06-22T12:53:49;11.63;;;6.50;;
11671;SDS011;5892;43.412;24.612;2023-06-22T12:56:16;7.22;;;6.53;;
11671;SDS011;5892;43.412;24.612;2023-06-22T12:58:43;7.07;;;6.45;;
11671;SDS011;5892;43.412;24.612;2023-06-22T13:01:10;8.15;;;6.50;;
11671;SDS011;5892;43.412;24.612;2023-06-22T13:03:37;8.05;;;6.55;;
11671;SDS011;5892;43.412;24.612;2023-06-22T13:06:05;7.63;;;6.10;;
11671;SDS011;5892;43.412;24.612;2023-06-22T13:08:32;6.90;;;6.30;;
11671;SDS011;5892;43.412;24.612;2023-06-22T13:11:01;6.75;;;6.15;;
11671;SDS011;5892;43.412;24.612;2023-06-22T13:13:28;6.43;;;5.80;;
11671;SDS011;5892;43.412;24.612;2023-06-22T13:15:55;6.95;;;6.25;;
11671;SDS011;5892;43.412;24.612;2023-06-22T13:18:22;7.13;;;6.05;;
11671;SDS011;5892;43.412;24.612;2023-06-22T13:20:49;7.50;;;6.53;;
11671;SDS011;5892;43.412;24.612;2023-06-22T13:23:16;7.28;;;6.35;;
11671;SDS011;5892;43.412;24.612;2023-06-22T13:25:43;23.70;;;12.80;;
11671;SDS011;5892;43.412;24.612;2023-06-22T13:28:12;11.32;;;7.32;;
11671;SDS011;5892;43.412;24.612;2023-06-22T13:30:41;11.02;;;8.20;;
11671;SDS011;5892;43.412;24.612;2023-06-22T13:33:12;9.32;;;6.93;;
11671;SDS011;5892;43.412;24.612;2023-06-22T13:35:39;7.07;;;6.38;;
11671;SDS011;5892;43.412;24.612;2023-06-22T13:38:07;7.47;;;6.35;;
11671;SDS011;5892;43.412;24.612;2023-06-22T13:40:34;6.60;;;6.00;;
11671;SDS011;5892;43.412;24.612;2023-06-22T13:43:03;6.18;;;5.65;;
11671;SDS011;5892;43.412;24.612;2023-06-22T13:45:34;6.47;;;5.88;;
11671;SDS011;5892;43.412;24.612;2023-06-22T13:48:01;7.43;;;6.18;;
11671;SDS011;5892;43.412;24.612;2023-06-22T13:50:28;6.32;;;5.72;;
11671;SDS011;5892;43.412;24.612;2023-06-22T13:52:55;6.47;;;5.82;;
11671;SDS011;5892;43.412;24.612;2023-06-22T13:55:22;11.60;;;7.43;;
11671;SDS011;5892;43.412;24.612;2023-06-22T13:57:50;6.72;;;6.03;;
11671;SDS011;5892;43.412;24.612;2023-06-22T14:00:17;6.68;;;6.07;;
11671;SDS011;5892;43.412;24.612;2023-06-22T14:02:46;6.15;;;5.50;;
11671;SDS011;5892;43.412;24.612;2023-06-22T14:05:12;6.28;;;5.55;;
11671;SDS011;5892;43.412;24.612;2023-06-22T14:07:39;7.63;;;5.95;;
11671;SDS011;5892;43.412;24.612;2023-06-22T14:10:16;6.90;;;6.00;;
11671;SDS011;5892;43.412;24.612;2023-06-22T14:12:43;6.30;;;5.70;;
11671;SDS011;5892;43.412;24.612;2023-06-22T14:15:10;11.45;;;5.93;;
11671;SDS011;5892;43.412;24.612;2023-06-22T14:17:37;8.50;;;5.88;;
11671;SDS011;5892;43.412;24.612;2023-06-22T14:20:07;6.20;;;5.60;;
11671;SDS011;5892;43.412;24.612;2023-06-22T14:22:34;6.22;;;5.57;;
11671;SDS011;5892;43.412;24.612;2023-06-22T14:25:01;10.75;;;6.10;;
11671;SDS011;5892;43.412;24.612;2023-06-22T14:27:29;6.75;;;6.15;;
11671;SDS011;5892;43.412;24.612;2023-06-22T14:29:56;8.45;;;5.70;;
11671;SDS011;5892;43.412;24.612;2023-06-22T14:32:23;7.30;;;5.35;;
11671;SDS011;5892;43.412;24.612;2023-06-22T14:34:50;6.13;;;5.50;;
11671;SDS011;5892;43.412;24.612;2023-06-22T14:37:20;7.72;;;5.57;;
11671;SDS011;5892;43.412;24.612;2023-06-22T14:39:47;6.50;;;5.75;;
11671;SDS011;5892;43.412;24.612;2023-06-22T14:42:14;6.50;;;5.82;;
11671;SDS011;5892;43.412;24.612;2023-06-22T14:44:41;6.15;;;5.55;;
11671;SDS011;5892;43.412;24.612;2023-06-22T14:47:10;6.45;;;5.85;;
11671;SDS011;5892;43.412;24.612;2023-06-22T14:49:37;6.10;;;5.60;;